Terminal Aerodrome Forecast
Issued by NWS Atlanta, GA

Home | Current Version | Previous Version | Text Only | Print | Product List | Glossary On
Versions: 1 2 3 4 5 6 7 8 9 10 11 12 13 14 15
000
FTUS42 KFFC 311120
TAFMCN
TAF
KMCN 311120Z 3112/0112 04003KT P6SM FEW200
     FM311800 16003KT P6SM BKN200
     FM010200 00000KT P6SM BKN150
     FM010900 00000KT P6SM BKN020=

USA.gov is the U.S. government's official web portal to all federal, state and local government web resources and services.